sensor_id;sensor_type;location;lat;lon;timestamp;P1;durP1;ratioP1;P2;durP2;ratioP2
32505;SDS011;18955;51.224;8.482;2023-03-05T00:00:50;6.45;;;1.55;;
32505;SDS011;18955;51.224;8.482;2023-03-05T00:03:16;3.50;;;1.35;;
32505;SDS011;18955;51.224;8.482;2023-03-05T00:05:42;9.40;;;2.22;;
32505;SDS011;18955;51.224;8.482;2023-03-05T00:08:08;9.35;;;1.73;;
32505;SDS011;18955;51.224;8.482;2023-03-05T00:10:34;8.88;;;1.83;;
32505;SDS011;18955;51.224;8.482;2023-03-05T00:13:01;6.78;;;1.40;;
32505;SDS011;18955;51.224;8.482;2023-03-05T00:15:27;6.10;;;1.25;;
32505;SDS011;18955;51.224;8.482;2023-03-05T00:17:54;4.85;;;1.48;;
32505;SDS011;18955;51.224;8.482;2023-03-05T00:20:20;5.30;;;1.20;;
32505;SDS011;18955;51.224;8.482;2023-03-05T00:22:46;6.45;;;0.98;;
32505;SDS011;18955;51.224;8.482;2023-03-05T00:25:12;5.50;;;1.27;;
32505;SDS011;18955;51.224;8.482;2023-03-05T00:27:38;6.53;;;1.20;;
32505;SDS011;18955;51.224;8.482;2023-03-05T00:30:05;3.85;;;1.13;;
32505;SDS011;18955;51.224;8.482;2023-03-05T00:32:32;10.05;;;1.67;;
32505;SDS011;18955;51.224;8.482;2023-03-05T00:34:58;6.65;;;1.30;;
32505;SDS011;18955;51.224;8.482;2023-03-05T00:37:24;7.22;;;1.38;;
32505;SDS011;18955;51.224;8.482;2023-03-05T00:39:50;4.82;;;1.10;;
32505;SDS011;18955;51.224;8.482;2023-03-05T00:42:17;8.10;;;1.83;;
32505;SDS011;18955;51.224;8.482;2023-03-05T00:44:43;4.10;;;1.30;;
32505;SDS011;18955;51.224;8.482;2023-03-05T00:47:09;4.13;;;1.00;;
32505;SDS011;18955;51.224;8.482;2023-03-05T00:49:36;6.72;;;1.02;;
32505;SDS011;18955;51.224;8.482;2023-03-05T00:52:02;6.93;;;1.55;;
32505;SDS011;18955;51.224;8.482;2023-03-05T00:54:29;4.82;;;1.50;;
32505;SDS011;18955;51.224;8.482;2023-03-05T00:56:55;4.50;;;0.77;;
32505;SDS011;18955;51.224;8.482;2023-03-05T00:59:21;9.45;;;1.05;;
32505;SDS011;18955;51.224;8.482;2023-03-05T01:01:47;7.68;;;1.45;;
32505;SDS011;18955;51.224;8.482;2023-03-05T01:04:13;3.28;;;0.57;;
32505;SDS011;18955;51.224;8.482;2023-03-05T01:06:40;7.13;;;1.10;;
32505;SDS011;18955;51.224;8.482;2023-03-05T01:09:09;5.07;;;1.20;;
32505;SDS011;18955;51.224;8.482;2023-03-05T01:11:35;3.28;;;0.80;;
32505;SDS011;18955;51.224;8.482;2023-03-05T01:14:01;4.90;;;0.90;;
32505;SDS011;18955;51.224;8.482;2023-03-05T01:16:28;6.03;;;1.48;;
32505;SDS011;18955;51.224;8.482;2023-03-05T01:18:54;6.07;;;1.10;;
32505;SDS011;18955;51.224;8.482;2023-03-05T01:21:20;3.63;;;1.13;;
32505;SDS011;18955;51.224;8.482;2023-03-05T01:23:47;4.40;;;1.10;;
32505;SDS011;18955;51.224;8.482;2023-03-05T01:26:13;5.57;;;1.02;;
32505;SDS011;18955;51.224;8.482;2023-03-05T01:28:39;5.85;;;1.10;;
32505;SDS011;18955;51.224;8.482;2023-03-05T01:31:06;5.00;;;1.50;;
32505;SDS011;18955;51.224;8.482;2023-03-05T01:33:36;5.68;;;1.20;;
32505;SDS011;18955;51.224;8.482;2023-03-05T01:36:07;3.50;;;1.10;;
32505;SDS011;18955;51.224;8.482;2023-03-05T01:38:37;5.65;;;1.10;;
32505;SDS011;18955;51.224;8.482;2023-03-05T01:41:03;3.08;;;0.80;;
32505;SDS011;18955;51.224;8.482;2023-03-05T01:43:30;3.60;;;0.90;;
32505;SDS011;18955;51.224;8.482;2023-03-05T01:48:43;2.97;;;1.00;;
32505;SDS011;18955;51.224;8.482;2023-03-05T01:51:15;4.15;;;0.90;;
32505;SDS011;18955;51.224;8.482;2023-03-05T01:53:43;5.88;;;1.00;;
32505;SDS011;18955;51.224;8.482;2023-03-05T01:56:09;4.70;;;0.90;;
32505;SDS011;18955;51.224;8.482;2023-03-05T01:58:36;5.43;;;1.13;;
32505;SDS011;18955;51.224;8.482;2023-03-05T02:01:04;6.03;;;0.90;;
32505;SDS011;18955;51.224;8.482;2023-03-05T02:05:58;4.10;;;0.95;;
32505;SDS011;18955;51.224;8.482;2023-03-05T02:08:24;5.70;;;1.08;;
32505;SDS011;18955;51.224;8.482;2023-03-05T02:10:51;3.05;;;1.17;;
32505;SDS011;18955;51.224;8.482;2023-03-05T02:13:23;3.97;;;0.90;;
32505;SDS011;18955;51.224;8.482;2023-03-05T02:15:51;7.85;;;1.10;;
32505;SDS011;18955;51.224;8.482;2023-03-05T02:18:19;4.00;;;1.02;;
32505;SDS011;18955;51.224;8.482;2023-03-05T02:20:48;1.92;;;0.75;;
32505;SDS011;18955;51.224;8.482;2023-03-05T02:23:15;5.55;;;1.02;;
32505;SDS011;18955;51.224;8.482;2023-03-05T02:25:42;7.68;;;1.15;;
32505;SDS011;18955;51.224;8.482;2023-03-05T02:30:38;7.05;;;1.40;;
32505;SDS011;18955;51.224;8.482;2023-03-05T02:33:04;5.60;;;1.35;;
32505;SDS011;18955;51.224;8.482;2023-03-05T02:35:31;4.65;;;1.10;;
32505;SDS011;18955;51.224;8.482;2023-03-05T02:37:57;4.30;;;0.98;;
32505;SDS011;18955;51.224;8.482;2023-03-05T02:40:24;3.88;;;1.10;;
32505;SDS011;18955;51.224;8.482;2023-03-05T02:42:50;3.33;;;0.90;;
32505;SDS011;18955;51.224;8.482;2023-03-05T02:45:17;6.22;;;1.30;;
32505;SDS011;18955;51.224;8.482;2023-03-05T02:47:43;2.85;;;1.08;;
32505;SDS011;18955;51.224;8.482;2023-03-05T02:50:10;2.45;;;0.90;;
32505;SDS011;18955;51.224;8.482;2023-03-05T02:52:37;7.95;;;1.27;;
32505;SDS011;18955;51.224;8.482;2023-03-05T02:55:07;4.85;;;1.10;;
32505;SDS011;18955;51.224;8.482;2023-03-05T02:57:34;9.10;;;1.30;;
32505;SDS011;18955;51.224;8.482;2023-03-05T03:00:00;4.88;;;1.30;;
32505;SDS011;18955;51.224;8.482;2023-03-05T03:02:28;2.80;;;0.95;;
32505;SDS011;18955;51.224;8.482;2023-03-05T03:04:54;9.63;;;1.85;;
32505;SDS011;18955;51.224;8.482;2023-03-05T03:07:20;9.18;;;1.98;;
32505;SDS011;18955;51.224;8.482;2023-03-05T03:09:46;3.38;;;1.55;;
32505;SDS011;18955;51.224;8.482;2023-03-05T03:12:13;10.23;;;1.90;;
32505;SDS011;18955;51.224;8.482;2023-03-05T03:14:39;7.05;;;1.70;;
32505;SDS011;18955;51.224;8.482;2023-03-05T03:17:11;7.95;;;2.28;;
32505;SDS011;18955;51.224;8.482;2023-03-05T03:19:39;6.63;;;1.67;;
32505;SDS011;18955;51.224;8.482;2023-03-05T03:22:07;7.25;;;2.15;;
32505;SDS011;18955;51.224;8.482;2023-03-05T03:24:35;5.43;;;1.92;;
32505;SDS011;18955;51.224;8.482;2023-03-05T03:27:02;8.07;;;2.13;;
32505;SDS011;18955;51.224;8.482;2023-03-05T03:29:28;5.65;;;1.92;;
32505;SDS011;18955;51.224;8.482;2023-03-05T03:31:55;6.45;;;2.05;;
32505;SDS011;18955;51.224;8.482;2023-03-05T03:34:21;8.25;;;2.40;;
32505;SDS011;18955;51.224;8.482;2023-03-05T03:36:48;3.65;;;1.73;;
32505;SDS011;18955;51.224;8.482;2023-03-05T03:39:15;6.40;;;2.58;;
32505;SDS011;18955;51.224;8.482;2023-03-05T03:44:15;14.45;;;3.10;;
32505;SDS011;18955;51.224;8.482;2023-03-05T03:46:43;13.85;;;3.47;;
32505;SDS011;18955;51.224;8.482;2023-03-05T03:49:18;6.88;;;2.58;;
32505;SDS011;18955;51.224;8.482;2023-03-05T03:51:50;6.43;;;2.58;;
32505;SDS011;18955;51.224;8.482;2023-03-05T03:54:19;6.03;;;2.72;;
32505;SDS011;18955;51.224;8.482;2023-03-05T03:56:46;8.95;;;3.35;;
32505;SDS011;18955;51.224;8.482;2023-03-05T03:59:13;9.20;;;2.65;;
32505;SDS011;18955;51.224;8.482;2023-03-05T04:01:39;7.68;;;3.00;;
32505;SDS011;18955;51.224;8.482;2023-03-05T04:04:05;9.23;;;2.92;;
32505;SDS011;18955;51.224;8.482;2023-03-05T04:06:32;7.70;;;3.42;;
32505;SDS011;18955;51.224;8.482;2023-03-05T04:08:58;7.35;;;3.35;;
32505;SDS011;18955;51.224;8.482;2023-03-05T04:11:25;10.93;;;3.53;;
32505;SDS011;18955;51.224;8.482;2023-03-05T04:13:51;15.35;;;3.92;;
32505;SDS011;18955;51.224;8.482;2023-03-05T04:16:19;9.05;;;3.33;;
32505;SDS011;18955;51.224;8.482;2023-03-05T04:18:46;8.13;;;3.13;;
32505;SDS011;18955;51.224;8.482;2023-03-05T04:21:12;5.43;;;2.10;;
32505;SDS011;18955;51.224;8.482;2023-03-05T04:23:38;8.52;;;3.05;;
32505;SDS011;18955;51.224;8.482;2023-03-05T04:26:04;7.18;;;2.38;;
32505;SDS011;18955;51.224;8.482;2023-03-05T04:28:31;6.88;;;3.03;;
32505;SDS011;18955;51.224;8.482;2023-03-05T04:30:58;9.27;;;2.67;;
32505;SDS011;18955;51.224;8.482;2023-03-05T04:33:24;5.80;;;2.92;;
32505;SDS011;18955;51.224;8.482;2023-03-05T04:35:50;6.13;;;2.92;;
32505;SDS011;18955;51.224;8.482;2023-03-05T04:38:17;4.20;;;2.38;;
32505;SDS011;18955;51.224;8.482;2023-03-05T04:40:44;9.55;;;3.47;;
32505;SDS011;18955;51.224;8.482;2023-03-05T04:43:10;8.27;;;3.30;;
32505;SDS011;18955;51.224;8.482;2023-03-05T04:45:40;6.05;;;2.45;;
32505;SDS011;18955;51.224;8.482;2023-03-05T04:48:07;7.03;;;2.88;;
32505;SDS011;18955;51.224;8.482;2023-03-05T04:50:35;4.95;;;1.98;;
32505;SDS011;18955;51.224;8.482;2023-03-05T04:53:02;5.78;;;2.47;;
32505;SDS011;18955;51.224;8.482;2023-03-05T04:55:28;6.07;;;2.40;;
32505;SDS011;18955;51.224;8.482;2023-03-05T04:57:54;7.88;;;2.45;;
32505;SDS011;18955;51.224;8.482;2023-03-05T05:00:20;9.07;;;2.63;;
32505;SDS011;18955;51.224;8.482;2023-03-05T05:02:48;9.65;;;2.85;;
32505;SDS011;18955;51.224;8.482;2023-03-05T05:05:16;9.23;;;2.63;;
32505;SDS011;18955;51.224;8.482;2023-03-05T05:07:44;7.25;;;2.28;;
32505;SDS011;18955;51.224;8.482;2023-03-05T05:10:11;4.88;;;2.17;;
32505;SDS011;18955;51.224;8.482;2023-03-05T05:12:38;6.03;;;2.20;;
32505;SDS011;18955;51.224;8.482;2023-03-05T05:15:05;4.97;;;1.75;;
32505;SDS011;18955;51.224;8.482;2023-03-05T05:17:33;6.35;;;2.17;;
32505;SDS011;18955;51.224;8.482;2023-03-05T05:19:59;5.82;;;2.50;;
32505;SDS011;18955;51.224;8.482;2023-03-05T05:22:27;4.28;;;1.90;;
32505;SDS011;18955;51.224;8.482;2023-03-05T05:24:54;6.60;;;2.28;;
32505;SDS011;18955;51.224;8.482;2023-03-05T05:29:47;5.93;;;2.22;;
32505;SDS011;18955;51.224;8.482;2023-03-05T05:32:20;4.65;;;2.33;;
32505;SDS011;18955;51.224;8.482;2023-03-05T05:34:52;5.22;;;2.40;;
32505;SDS011;18955;51.224;8.482;2023-03-05T05:37:19;5.15;;;2.45;;
32505;SDS011;18955;51.224;8.482;2023-03-05T05:39:46;8.38;;;2.90;;
32505;SDS011;18955;51.224;8.482;2023-03-05T05:42:15;7.65;;;3.30;;
32505;SDS011;18955;51.224;8.482;2023-03-05T05:44:43;6.20;;;2.83;;
32505;SDS011;18955;51.224;8.482;2023-03-05T05:47:09;4.45;;;2.75;;
32505;SDS011;18955;51.224;8.482;2023-03-05T05:49:36;5.30;;;3.22;;
32505;SDS011;18955;51.224;8.482;2023-03-05T05:52:02;8.35;;;2.67;;
32505;SDS011;18955;51.224;8.482;2023-03-05T05:54:29;5.32;;;2.88;;
32505;SDS011;18955;51.224;8.482;2023-03-05T05:56:55;6.20;;;2.90;;
32505;SDS011;18955;51.224;8.482;2023-03-05T05:59:21;7.07;;;2.90;;
32505;SDS011;18955;51.224;8.482;2023-03-05T06:01:48;5.45;;;3.20;;
32505;SDS011;18955;51.224;8.482;2023-03-05T06:04:14;4.90;;;2.78;;
32505;SDS011;18955;51.224;8.482;2023-03-05T06:06:40;7.05;;;2.80;;
32505;SDS011;18955;51.224;8.482;2023-03-05T06:09:06;4.15;;;2.72;;
32505;SDS011;18955;51.224;8.482;2023-03-05T06:11:32;7.07;;;2.63;;
32505;SDS011;18955;51.224;8.482;2023-03-05T06:13:59;7.35;;;3.30;;
32505;SDS011;18955;51.224;8.482;2023-03-05T06:16:27;8.25;;;3.42;;
32505;SDS011;18955;51.224;8.482;2023-03-05T06:18:53;8.32;;;3.47;;
32505;SDS011;18955;51.224;8.482;2023-03-05T06:21:20;6.78;;;2.25;;
32505;SDS011;18955;51.224;8.482;2023-03-05T06:23:48;8.02;;;3.78;;
32505;SDS011;18955;51.224;8.482;2023-03-05T06:26:16;7.90;;;3.38;;
32505;SDS011;18955;51.224;8.482;2023-03-05T06:28:44;8.32;;;3.70;;
32505;SDS011;18955;51.224;8.482;2023-03-05T06:31:12;8.38;;;3.50;;
32505;SDS011;18955;51.224;8.482;2023-03-05T06:33:40;5.70;;;3.45;;
32505;SDS011;18955;51.224;8.482;2023-03-05T06:36:07;6.75;;;3.28;;
32505;SDS011;18955;51.224;8.482;2023-03-05T06:38:36;6.20;;;3.22;;
32505;SDS011;18955;51.224;8.482;2023-03-05T06:41:03;6.43;;;4.20;;
32505;SDS011;18955;51.224;8.482;2023-03-05T06:43:34;9.18;;;3.42;;
32505;SDS011;18955;51.224;8.482;2023-03-05T06:46:03;6.72;;;3.28;;
32505;SDS011;18955;51.224;8.482;2023-03-05T06:48:32;7.32;;;3.65;;
32505;SDS011;18955;51.224;8.482;2023-03-05T06:50:58;8.07;;;3.40;;
32505;SDS011;18955;51.224;8.482;2023-03-05T06:53:25;6.78;;;3.38;;
32505;SDS011;18955;51.224;8.482;2023-03-05T06:55:52;7.78;;;4.05;;
32505;SDS011;18955;51.224;8.482;2023-03-05T06:58:19;7.78;;;3.80;;
32505;SDS011;18955;51.224;8.482;2023-03-05T07:00:45;5.15;;;3.38;;
32505;SDS011;18955;51.224;8.482;2023-03-05T07:03:12;5.95;;;3.35;;
32505;SDS011;18955;51.224;8.482;2023-03-05T07:08:05;5.40;;;3.13;;
32505;SDS011;18955;51.224;8.482;2023-03-05T07:10:36;6.03;;;3.55;;
32505;SDS011;18955;51.224;8.482;2023-03-05T07:13:04;4.90;;;3.03;;
32505;SDS011;18955;51.224;8.482;2023-03-05T07:15:31;5.38;;;2.83;;
32505;SDS011;18955;51.224;8.482;2023-03-05T07:17:58;2.97;;;2.53;;
32505;SDS011;18955;51.224;8.482;2023-03-05T07:20:24;3.33;;;1.88;;
32505;SDS011;18955;51.224;8.482;2023-03-05T07:22:50;5.57;;;3.08;;
32505;SDS011;18955;51.224;8.482;2023-03-05T07:25:16;3.47;;;2.33;;
32505;SDS011;18955;51.224;8.482;2023-03-05T07:27:46;2.92;;;2.45;;
32505;SDS011;18955;51.224;8.482;2023-03-05T07:30:13;3.20;;;2.35;;
32505;SDS011;18955;51.224;8.482;2023-03-05T07:32:40;3.88;;;2.92;;
32505;SDS011;18955;51.224;8.482;2023-03-05T07:35:06;3.05;;;2.38;;
32505;SDS011;18955;51.224;8.482;2023-03-05T07:37:33;3.38;;;3.00;;
32505;SDS011;18955;51.224;8.482;2023-03-05T07:39:59;3.97;;;2.65;;
32505;SDS011;18955;51.224;8.482;2023-03-05T07:42:26;3.85;;;3.17;;
32505;SDS011;18955;51.224;8.482;2023-03-05T07:45:06;5.07;;;3.58;;
32505;SDS011;18955;51.224;8.482;2023-03-05T07:50:00;5.43;;;3.40;;
32505;SDS011;18955;51.224;8.482;2023-03-05T07:52:26;5.22;;;2.65;;
32505;SDS011;18955;51.224;8.482;2023-03-05T07:54:52;5.30;;;3.78;;
32505;SDS011;18955;51.224;8.482;2023-03-05T07:57:19;5.80;;;3.38;;
32505;SDS011;18955;51.224;8.482;2023-03-05T07:59:45;8.40;;;3.50;;
32505;SDS011;18955;51.224;8.482;2023-03-05T08:02:11;11.35;;;4.57;;
32505;SDS011;18955;51.224;8.482;2023-03-05T08:07:04;8.38;;;3.78;;
32505;SDS011;18955;51.224;8.482;2023-03-05T08:09:31;3.28;;;2.55;;
32505;SDS011;18955;51.224;8.482;2023-03-05T08:11:57;6.90;;;3.60;;
32505;SDS011;18955;51.224;8.482;2023-03-05T08:14:24;6.32;;;3.25;;
32505;SDS011;18955;51.224;8.482;2023-03-05T08:19:17;7.57;;;3.88;;
32505;SDS011;18955;51.224;8.482;2023-03-05T08:21:44;7.28;;;3.78;;
32505;SDS011;18955;51.224;8.482;2023-03-05T08:26:38;12.40;;;3.80;;
32505;SDS011;18955;51.224;8.482;2023-03-05T08:29:06;7.18;;;3.97;;
32505;SDS011;18955;51.224;8.482;2023-03-05T08:31:33;8.52;;;4.65;;
32505;SDS011;18955;51.224;8.482;2023-03-05T08:34:00;6.93;;;4.47;;
32505;SDS011;18955;51.224;8.482;2023-03-05T08:36:28;7.45;;;4.45;;
32505;SDS011;18955;51.224;8.482;2023-03-05T08:41:21;11.38;;;4.85;;
32505;SDS011;18955;51.224;8.482;2023-03-05T08:43:47;8.57;;;4.82;;
32505;SDS011;18955;51.224;8.482;2023-03-05T08:46:14;7.65;;;5.25;;
32505;SDS011;18955;51.224;8.482;2023-03-05T08:48:41;12.65;;;5.78;;
32505;SDS011;18955;51.224;8.482;2023-03-05T08:51:09;12.20;;;5.63;;
32505;SDS011;18955;51.224;8.482;2023-03-05T08:53:41;9.88;;;5.03;;
32505;SDS011;18955;51.224;8.482;2023-03-05T08:56:09;8.65;;;5.07;;
32505;SDS011;18955;51.224;8.482;2023-03-05T08:58:36;8.98;;;5.03;;
32505;SDS011;18955;51.224;8.482;2023-03-05T09:01:03;7.63;;;5.35;;
32505;SDS011;18955;51.224;8.482;2023-03-05T09:03:30;8.98;;;5.53;;
32505;SDS011;18955;51.224;8.482;2023-03-05T09:06:00;13.45;;;6.32;;
32505;SDS011;18955;51.224;8.482;2023-03-05T09:08:28;8.57;;;5.00;;
32505;SDS011;18955;51.224;8.482;2023-03-05T09:10:55;7.60;;;5.07;;
32505;SDS011;18955;51.224;8.482;2023-03-05T09:13:22;8.80;;;5.57;;
32505;SDS011;18955;51.224;8.482;2023-03-05T09:15:55;9.43;;;5.28;;
32505;SDS011;18955;51.224;8.482;2023-03-05T09:18:24;8.75;;;5.10;;
32505;SDS011;18955;51.224;8.482;2023-03-05T09:23:16;8.95;;;4.95;;
32505;SDS011;18955;51.224;8.482;2023-03-05T09:25:42;9.48;;;5.45;;
32505;SDS011;18955;51.224;8.482;2023-03-05T09:28:09;7.30;;;3.80;;
32505;SDS011;18955;51.224;8.482;2023-03-05T09:30:35;7.88;;;5.25;;
32505;SDS011;18955;51.224;8.482;2023-03-05T09:33:01;6.55;;;3.40;;
32505;SDS011;18955;51.224;8.482;2023-03-05T09:35:29;7.57;;;4.90;;
32505;SDS011;18955;51.224;8.482;2023-03-05T09:37:55;7.13;;;5.28;;
32505;SDS011;18955;51.224;8.482;2023-03-05T09:40:21;6.30;;;3.58;;
32505;SDS011;18955;51.224;8.482;2023-03-05T09:43:00;8.43;;;5.32;;
32505;SDS011;18955;51.224;8.482;2023-03-05T09:45:56;6.00;;;4.45;;
32505;SDS011;18955;51.224;8.482;2023-03-05T09:51:24;6.68;;;5.05;;
32505;SDS011;18955;51.224;8.482;2023-03-05T09:56:36;8.25;;;5.40;;
32505;SDS011;18955;51.224;8.482;2023-03-05T09:59:19;8.50;;;5.70;;
32505;SDS011;18955;51.224;8.482;2023-03-05T10:01:56;8.77;;;5.32;;
32505;SDS011;18955;51.224;8.482;2023-03-05T10:04:41;8.38;;;5.28;;
32505;SDS011;18955;51.224;8.482;2023-03-05T10:07:38;8.45;;;5.95;;
32505;SDS011;18955;51.224;8.482;2023-03-05T10:13:38;14.70;;;7.25;;
32505;SDS011;18955;51.224;8.482;2023-03-05T10:18:50;10.68;;;5.85;;
32505;SDS011;18955;51.224;8.482;2023-03-05T10:21:34;10.43;;;5.75;;
32505;SDS011;18955;51.224;8.482;2023-03-05T10:27:05;10.02;;;5.75;;
32505;SDS011;18955;51.224;8.482;2023-03-05T10:35:40;9.05;;;6.80;;
32505;SDS011;18955;51.224;8.482;2023-03-05T10:43:51;9.75;;;6.05;;
32505;SDS011;18955;51.224;8.482;2023-03-05T10:46:19;8.32;;;6.00;;
32505;SDS011;18955;51.224;8.482;2023-03-05T10:48:49;11.90;;;6.40;;
32505;SDS011;18955;51.224;8.482;2023-03-05T10:51:46;7.95;;;5.57;;
32505;SDS011;18955;51.224;8.482;2023-03-05T11:00:05;9.05;;;5.75;;
32505;SDS011;18955;51.224;8.482;2023-03-05T11:02:36;9.43;;;6.70;;
32505;SDS011;18955;51.224;8.482;2023-03-05T11:16:22;8.05;;;5.70;;
32505;SDS011;18955;51.224;8.482;2023-03-05T11:18:48;6.47;;;4.45;;
32505;SDS011;18955;51.224;8.482;2023-03-05T11:21:19;5.85;;;3.97;;
32505;SDS011;18955;51.224;8.482;2023-03-05T11:24:04;5.32;;;4.45;;
32505;SDS011;18955;51.224;8.482;2023-03-05T11:29:16;6.75;;;4.20;;
32505;SDS011;18955;51.224;8.482;2023-03-05T11:31:55;6.88;;;4.53;;
32505;SDS011;18955;51.224;8.482;2023-03-05T11:34:53;5.78;;;4.88;;
32505;SDS011;18955;51.224;8.482;2023-03-05T11:37:22;7.63;;;4.80;;
32505;SDS011;18955;51.224;8.482;2023-03-05T11:42:47;9.40;;;4.55;;
32505;SDS011;18955;51.224;8.482;2023-03-05T11:45:20;7.50;;;4.78;;
32505;SDS011;18955;51.224;8.482;2023-03-05T11:47:50;7.35;;;5.47;;
32505;SDS011;18955;51.224;8.482;2023-03-05T11:50:19;10.20;;;5.00;;
32505;SDS011;18955;51.224;8.482;2023-03-05T11:53:01;8.60;;;5.05;;
32505;SDS011;18955;51.224;8.482;2023-03-05T11:55:38;7.43;;;5.40;;
32505;SDS011;18955;51.224;8.482;2023-03-05T12:00:48;7.68;;;5.03;;
32505;SDS011;18955;51.224;8.482;2023-03-05T12:03:18;9.02;;;5.00;;
32505;SDS011;18955;51.224;8.482;2023-03-05T12:05:51;6.82;;;5.07;;
32505;SDS011;18955;51.224;8.482;2023-03-05T12:08:27;6.80;;;4.88;;
32505;SDS011;18955;51.224;8.482;2023-03-05T12:10:58;6.45;;;4.40;;
32505;SDS011;18955;51.224;8.482;2023-03-05T12:22:18;8.80;;;4.45;;
32505;SDS011;18955;51.224;8.482;2023-03-05T12:24:47;8.27;;;5.10;;
32505;SDS011;18955;51.224;8.482;2023-03-05T12:27:16;6.93;;;4.85;;
32505;SDS011;18955;51.224;8.482;2023-03-05T12:29:57;8.00;;;4.90;;
32505;SDS011;18955;51.224;8.482;2023-03-05T13:03:22;7.80;;;5.43;;
32505;SDS011;18955;51.224;8.482;2023-03-05T13:05:57;11.52;;;6.60;;
32505;SDS011;18955;51.224;8.482;2023-03-05T13:08:26;10.27;;;6.38;;
32505;SDS011;18955;51.224;8.482;2023-03-05T13:13:28;6.32;;;4.80;;
32505;SDS011;18955;51.224;8.482;2023-03-05T13:15:57;7.32;;;5.43;;
32505;SDS011;18955;51.224;8.482;2023-03-05T13:18:26;7.70;;;4.95;;
32505;SDS011;18955;51.224;8.482;2023-03-05T13:21:01;6.60;;;4.70;;
32505;SDS011;18955;51.224;8.482;2023-03-05T13:23:54;7.25;;;4.68;;
32505;SDS011;18955;51.224;8.482;2023-03-05T13:26:27;6.65;;;3.67;;
32505;SDS011;18955;51.224;8.482;2023-03-05T13:31:43;4.90;;;3.95;;
32505;SDS011;18955;51.224;8.482;2023-03-05T13:34:17;6.05;;;3.92;;
32505;SDS011;18955;51.224;8.482;2023-03-05T13:39:49;3.97;;;3.25;;
32505;SDS011;18955;51.224;8.482;2023-03-05T13:42:27;6.63;;;4.75;;
32505;SDS011;18955;51.224;8.482;2023-03-05T13:47:40;5.90;;;3.78;;
32505;SDS011;18955;51.224;8.482;2023-03-05T13:50:28;5.68;;;4.00;;
32505;SDS011;18955;51.224;8.482;2023-03-05T13:55:55;8.43;;;4.57;;
32505;SDS011;18955;51.224;8.482;2023-03-05T14:03:56;5.50;;;4.03;;
32505;SDS011;18955;51.224;8.482;2023-03-05T14:06:36;5.63;;;4.18;;
32505;SDS011;18955;51.224;8.482;2023-03-05T14:09:26;4.97;;;3.83;;
32505;SDS011;18955;51.224;8.482;2023-03-05T14:15:02;7.27;;;3.97;;
32505;SDS011;18955;51.224;8.482;2023-03-05T14:17:36;6.50;;;3.90;;
32505;SDS011;18955;51.224;8.482;2023-03-05T14:22:44;4.68;;;3.50;;
32505;SDS011;18955;51.224;8.482;2023-03-05T14:27:54;6.65;;;3.65;;
32505;SDS011;18955;51.224;8.482;2023-03-05T14:30:22;2.55;;;1.67;;
32505;SDS011;18955;51.224;8.482;2023-03-05T14:32:50;5.18;;;3.83;;
32505;SDS011;18955;51.224;8.482;2023-03-05T14:35:20;6.20;;;3.20;;
32505;SDS011;18955;51.224;8.482;2023-03-05T14:37:50;4.90;;;2.97;;
32505;SDS011;18955;51.224;8.482;2023-03-05T14:42:54;4.72;;;3.85;;
32505;SDS011;18955;51.224;8.482;2023-03-05T14:47:57;17.40;;;8.23;;
32505;SDS011;18955;51.224;8.482;2023-03-05T14:50:26;14.57;;;7.40;;
32505;SDS011;18955;51.224;8.482;2023-03-05T14:53:19;9.55;;;4.72;;
32505;SDS011;18955;51.224;8.482;2023-03-05T14:55:51;4.10;;;2.42;;
32505;SDS011;18955;51.224;8.482;2023-03-05T14:58:25;3.17;;;2.35;;
32505;SDS011;18955;51.224;8.482;2023-03-05T15:00:56;4.05;;;2.47;;
32505;SDS011;18955;51.224;8.482;2023-03-05T15:03:23;3.88;;;2.47;;
32505;SDS011;18955;51.224;8.482;2023-03-05T15:05:51;3.28;;;2.08;;
32505;SDS011;18955;51.224;8.482;2023-03-05T15:08:21;7.13;;;2.50;;
32505;SDS011;18955;51.224;8.482;2023-03-05T15:10:47;4.00;;;2.70;;
32505;SDS011;18955;51.224;8.482;2023-03-05T15:15:41;4.75;;;2.58;;
32505;SDS011;18955;51.224;8.482;2023-03-05T15:18:09;4.80;;;2.78;;
32505;SDS011;18955;51.224;8.482;2023-03-05T15:20:39;3.25;;;2.30;;
32505;SDS011;18955;51.224;8.482;2023-03-05T15:25:32;5.82;;;2.20;;
32505;SDS011;18955;51.224;8.482;2023-03-05T15:27:58;4.10;;;1.90;;
32505;SDS011;18955;51.224;8.482;2023-03-05T15:32:56;3.70;;;2.10;;
32505;SDS011;18955;51.224;8.482;2023-03-05T15:35:25;3.35;;;2.28;;
32505;SDS011;18955;51.224;8.482;2023-03-05T15:37:52;3.63;;;1.88;;
32505;SDS011;18955;51.224;8.482;2023-03-05T15:40:19;4.05;;;2.03;;
32505;SDS011;18955;51.224;8.482;2023-03-05T15:42:46;3.53;;;1.60;;
32505;SDS011;18955;51.224;8.482;2023-03-05T15:45:13;5.32;;;2.58;;
32505;SDS011;18955;51.224;8.482;2023-03-05T15:47:40;3.10;;;2.35;;
32505;SDS011;18955;51.224;8.482;2023-03-05T15:50:08;4.35;;;1.80;;
32505;SDS011;18955;51.224;8.482;2023-03-05T15:52:35;4.32;;;2.03;;
32505;SDS011;18955;51.224;8.482;2023-03-05T15:55:02;5.07;;;1.77;;
32505;SDS011;18955;51.224;8.482;2023-03-05T15:59:54;3.25;;;1.88;;
32505;SDS011;18955;51.224;8.482;2023-03-05T16:02:21;2.78;;;1.70;;
32505;SDS011;18955;51.224;8.482;2023-03-05T16:04:49;3.17;;;1.50;;
32505;SDS011;18955;51.224;8.482;2023-03-05T16:07:15;4.47;;;1.60;;
32505;SDS011;18955;51.224;8.482;2023-03-05T16:09:42;2.63;;;1.60;;
32505;SDS011;18955;51.224;8.482;2023-03-05T16:12:14;3.13;;;1.58;;
32505;SDS011;18955;51.224;8.482;2023-03-05T16:14:43;4.93;;;1.52;;
32505;SDS011;18955;51.224;8.482;2023-03-05T16:17:10;3.92;;;1.80;;
32505;SDS011;18955;51.224;8.482;2023-03-05T16:19:39;2.33;;;1.50;;
32505;SDS011;18955;51.224;8.482;2023-03-05T16:22:09;3.05;;;1.60;;
32505;SDS011;18955;51.224;8.482;2023-03-05T16:24:35;2.20;;;1.40;;
32505;SDS011;18955;51.224;8.482;2023-03-05T16:27:01;4.57;;;1.80;;
32505;SDS011;18955;51.224;8.482;2023-03-05T16:29:29;6.15;;;3.20;;
32505;SDS011;18955;51.224;8.482;2023-03-05T16:31:57;3.35;;;1.83;;
32505;SDS011;18955;51.224;8.482;2023-03-05T16:34:26;4.50;;;1.75;;
32505;SDS011;18955;51.224;8.482;2023-03-05T16:36:53;2.97;;;1.50;;
32505;SDS011;18955;51.224;8.482;2023-03-05T16:39:19;3.35;;;2.00;;
32505;SDS011;18955;51.224;8.482;2023-03-05T16:41:46;4.97;;;1.95;;
32505;SDS011;18955;51.224;8.482;2023-03-05T16:44:14;4.65;;;2.30;;
32505;SDS011;18955;51.224;8.482;2023-03-05T16:46:40;3.10;;;2.00;;
32505;SDS011;18955;51.224;8.482;2023-03-05T16:49:08;4.70;;;2.65;;
32505;SDS011;18955;51.224;8.482;2023-03-05T16:51:34;3.50;;;2.30;;
32505;SDS011;18955;51.224;8.482;2023-03-05T16:54:01;3.38;;;2.30;;
32505;SDS011;18955;51.224;8.482;2023-03-05T16:56:28;3.70;;;2.40;;
32505;SDS011;18955;51.224;8.482;2023-03-05T16:58:54;4.50;;;2.65;;
32505;SDS011;18955;51.224;8.482;2023-03-05T17:03:47;6.78;;;2.70;;
32505;SDS011;18955;51.224;8.482;2023-03-05T17:06:15;7.78;;;3.03;;
32505;SDS011;18955;51.224;8.482;2023-03-05T17:08:44;3.70;;;2.72;;
32505;SDS011;18955;51.224;8.482;2023-03-05T17:11:12;5.53;;;3.03;;
32505;SDS011;18955;51.224;8.482;2023-03-05T17:13:39;4.20;;;3.38;;
32505;SDS011;18955;51.224;8.482;2023-03-05T17:16:06;6.43;;;3.35;;
32505;SDS011;18955;51.224;8.482;2023-03-05T17:18:34;3.35;;;3.00;;
32505;SDS011;18955;51.224;8.482;2023-03-05T17:21:01;4.90;;;3.00;;
32505;SDS011;18955;51.224;8.482;2023-03-05T17:23:28;6.43;;;3.10;;
32505;SDS011;18955;51.224;8.482;2023-03-05T17:25:56;4.32;;;3.10;;
32505;SDS011;18955;51.224;8.482;2023-03-05T17:28:22;4.60;;;3.17;;
32505;SDS011;18955;51.224;8.482;2023-03-05T17:30:49;6.05;;;3.47;;
32505;SDS011;18955;51.224;8.482;2023-03-05T17:33:16;4.70;;;2.90;;
32505;SDS011;18955;51.224;8.482;2023-03-05T17:35:42;5.63;;;2.30;;
32505;SDS011;18955;51.224;8.482;2023-03-05T17:38:12;6.10;;;2.80;;
32505;SDS011;18955;51.224;8.482;2023-03-05T17:40:38;4.47;;;3.03;;
32505;SDS011;18955;51.224;8.482;2023-03-05T17:43:05;3.65;;;2.47;;